Pewsey, United Kingdom
Current Conditions -  °F | °C
As of 2:50 AM on Tuesday 27 Jan 2015 (Local Time) from EGDM Reporting Station
Broken Clouds Broken Clouds  
Wind Chill: -1°   Ceiling: 20000
Heat Index:   Visibility: 6mi
Dew Point:   Wind: 6mph
Humidity: 100%   Direction: 310°NW
Pressure: 30.39"   Gusts: NA
Location:  51.34°N, 1.77°W
Report Text: EGDM 270250Z AUTO 31005KT 9999 BKN200/// 02/02 Q1029
Loading
Personal Weather Stations






























Interactive Weather Map New forecast layout! Learn more

10-Day Weather Forecast

Advertisements
Track Severe Weather on mobile